createdAt,value
2023-02-15T00:00:06.484Z,-2
2023-02-15T00:01:06.026Z,-1.1
2023-02-15T00:02:06.148Z,-1.1
2023-02-15T00:03:06.734Z,-1.1
2023-02-15T00:04:06.136Z,-1.1
2023-02-15T00:05:06.039Z,-1.1
2023-02-15T00:06:06.197Z,-1.1
2023-02-15T00:07:06.454Z,-1.1
2023-02-15T00:08:06.002Z,-1.1
2023-02-15T00:09:05.808Z,-1.1
2023-02-15T00:10:06.451Z,-1.1
2023-02-15T00:11:06.355Z,-2
2023-02-15T00:12:06.172Z,-2
2023-02-15T00:13:06.280Z,-1.1
2023-02-15T00:14:05.770Z,-2
2023-02-15T00:15:06.576Z,-1
2023-02-15T00:16:06.704Z,-1
2023-02-15T00:17:06.488Z,-2
2023-02-15T00:18:06.413Z,-1
2023-02-15T00:19:06.126Z,-1
2023-02-15T00:20:05.688Z,-1
2023-02-15T00:21:06.340Z,-1.1
2023-02-15T00:22:06.056Z,-1.1
2023-02-15T00:23:06.517Z,-2
2023-02-15T00:24:06.257Z,-1.1
2023-02-15T00:25:06.006Z,-1.2
2023-02-15T00:26:06.183Z,-2
2023-02-15T00:27:06.440Z,-1.2
2023-02-15T00:28:06.225Z,-1.2
2023-02-15T00:29:05.786Z,-1.2
2023-02-15T00:30:06.883Z,-1.1
2023-02-15T00:31:06.253Z,-1.1
2023-02-15T00:32:06.690Z,-1.2
2023-02-15T00:33:06.106Z,-1.2
2023-02-15T00:34:05.837Z,-1.2
2023-02-15T00:35:06.438Z,-2
2023-02-15T00:36:06.526Z,-2
2023-02-15T00:37:05.754Z,-1.2
2023-02-15T00:38:06.428Z,-1.2
2023-02-15T00:39:06.188Z,-1.2
2023-02-15T00:40:05.725Z,-1.2
2023-02-15T00:41:06.417Z,-2
2023-02-15T00:42:06.026Z,-1.2
2023-02-15T00:43:05.809Z,-1.2
2023-02-15T00:44:06.467Z,-1.2
2023-02-15T00:45:06.197Z,-1.2
2023-02-15T00:46:07.335Z,-1.2
2023-02-15T00:47:06.160Z,-2
2023-02-15T00:48:05.760Z,-1.2
2023-02-15T00:49:06.597Z,-1.2
2023-02-15T00:50:06.418Z,-1.2
2023-02-15T00:51:06.076Z,-1.2
2023-02-15T00:52:06.597Z,-2
2023-02-15T00:53:06.368Z,-1.2
2023-02-15T00:54:05.996Z,-1.3
2023-02-15T00:55:06.677Z,-1.3
2023-02-15T00:56:07.005Z,-1.3
2023-02-15T00:57:05.854Z,-1.3
2023-02-15T00:58:06.472Z,-1.3
2023-02-15T00:59:06.206Z,-1.3
2023-02-15T01:00:05.842Z,-1.3
2023-02-15T01:01:06.350Z,-1.3
2023-02-15T01:02:05.689Z,-1.3
2023-02-15T01:03:06.464Z,-2
2023-02-15T01:04:06.344Z,-1.3
2023-02-15T01:05:05.873Z,-1.3
2023-02-15T01:06:07.277Z,-1.3
2023-02-15T01:07:06.258Z,-1.4
2023-02-15T01:08:06.037Z,-1.4
2023-02-15T01:09:06.019Z,-1.3
2023-02-15T01:10:06.630Z,-1.3
2023-02-15T01:11:06.381Z,-1.4
2023-02-15T01:12:05.822Z,-1.3
2023-02-15T01:13:06.031Z,-1.3
2023-02-15T01:14:06.680Z,-1.3
2023-02-15T01:15:06.658Z,-1.3
2023-02-15T01:16:07.693Z,-1.3
2023-02-15T01:17:05.964Z,-1.3
2023-02-15T01:18:06.486Z,-1.3
2023-02-15T01:19:06.379Z,-1.3
2023-02-15T01:20:06.008Z,-1.3
2023-02-15T01:21:06.754Z,-1.3
2023-02-15T01:22:06.323Z,-2
2023-02-15T01:23:06.083Z,-1.3
2023-02-15T01:24:06.685Z,-1.3
2023-02-15T01:25:06.325Z,-1.3
2023-02-15T01:26:06.648Z,-1.3
2023-02-15T01:27:05.669Z,-1.2
2023-02-15T01:28:06.388Z,-1.2
2023-02-15T01:29:06.077Z,-1.3
2023-02-15T01:30:05.799Z,-1.3
2023-02-15T01:31:06.211Z,-1.2
2023-02-15T01:32:07.097Z,-1.2
2023-02-15T01:33:06.104Z,-1.3
2023-02-15T01:34:05.827Z,-1.2
2023-02-15T01:35:06.662Z,-2
2023-02-15T01:36:06.761Z,-1.3
2023-02-15T01:37:06.052Z,-1.3
2023-02-15T01:38:05.705Z,-1.3
2023-02-15T01:39:06.409Z,-1.3
2023-02-15T01:40:06.198Z,-1.2
2023-02-15T01:41:05.979Z,-1.3
2023-02-15T01:42:06.536Z,-1.3
2023-02-15T01:43:06.360Z,-1.2
2023-02-15T01:44:06.153Z,-1.3
2023-02-15T01:45:06.123Z,-2
2023-02-15T01:46:06.933Z,-1.3
2023-02-15T01:47:06.423Z,-1.3
2023-02-15T01:48:06.294Z,-2
2023-02-15T01:49:06.101Z,-1.3
2023-02-15T01:50:06.584Z,-1.3
2023-02-15T01:51:07.125Z,-1.4
2023-02-15T01:52:06.041Z,-1.4
2023-02-15T01:53:06.368Z,-1.4
2023-02-15T01:54:06.544Z,-1.4
2023-02-15T01:55:09.223Z,-1.4
2023-02-15T01:56:06.342Z,-1.4
2023-02-15T01:57:06.629Z,-1.4
2023-02-15T01:58:06.449Z,-1.5
2023-02-15T01:59:05.985Z,-1.4
2023-02-15T02:00:05.720Z,-1.4
2023-02-15T02:01:05.780Z,-1.4
2023-02-15T02:02:06.547Z,-1.4
2023-02-15T02:03:06.352Z,-1.4
2023-02-15T02:04:05.790Z,-1.4
2023-02-15T02:05:06.536Z,-1.5
2023-02-15T02:06:06.612Z,-1.4
2023-02-15T02:07:05.921Z,-1.5
2023-02-15T02:08:05.813Z,-1.5
2023-02-15T02:09:06.504Z,-1.5
2023-02-15T02:10:06.194Z,-1.5
2023-02-15T02:11:05.723Z,-1.5
2023-02-15T02:12:06.481Z,-2
2023-02-15T02:13:06.193Z,-1.5
2023-02-15T02:14:06.009Z,-1.6
2023-02-15T02:15:05.819Z,-1.5
2023-02-15T02:16:06.820Z,-1.6
2023-02-15T02:17:06.602Z,-1.6
2023-02-15T02:18:06.300Z,-1.5
2023-02-15T02:19:06.023Z,-1.6
2023-02-15T02:20:06.652Z,-1.6
2023-02-15T02:21:06.169Z,-2
2023-02-15T02:22:05.786Z,-1.6
2023-02-15T02:23:06.446Z,-1.6
2023-02-15T02:24:06.057Z,-1.6
2023-02-15T02:25:05.857Z,-1.6
2023-02-15T02:26:06.876Z,-1.6
2023-02-15T02:27:06.209Z,-1.6
2023-02-15T02:28:05.809Z,-1.5
2023-02-15T02:29:06.535Z,-1.5
2023-02-15T02:30:06.453Z,-1.5
2023-02-15T02:31:06.370Z,-2
2023-02-15T02:32:06.051Z,-1.5
2023-02-15T02:34:06.079Z,-1.5
2023-02-15T02:35:05.857Z,-1.5
2023-02-15T02:36:07.439Z,-1.5
2023-02-15T02:37:06.404Z,-1.5
2023-02-15T02:38:05.929Z,-1.5
2023-02-15T02:39:06.479Z,-1.5
2023-02-15T02:40:06.052Z,-1.5
2023-02-15T02:41:05.871Z,-1.5
2023-02-15T02:42:06.733Z,-1.5
2023-02-15T02:43:06.170Z,-1.5
2023-02-15T02:44:05.761Z,-1.5
2023-02-15T02:45:06.475Z,-1.5
2023-02-15T02:46:06.969Z,-1.5
2023-02-15T02:47:05.922Z,-1.5
2023-02-15T02:48:06.386Z,-1.4
2023-02-15T02:49:06.196Z,-1.5
2023-02-15T02:50:05.871Z,-1.5
2023-02-15T02:51:06.324Z,-1.5
2023-02-15T02:52:06.088Z,-1.5
2023-02-15T02:53:05.770Z,-1.5
2023-02-15T02:54:06.414Z,-1.5
2023-02-15T02:55:06.002Z,-1.5
2023-02-15T02:56:07.231Z,-2
2023-02-15T02:57:06.298Z,-1.4
2023-02-15T02:58:05.959Z,-1.4
2023-02-15T02:59:06.466Z,-1.4
2023-02-15T03:00:06.273Z,-1.5
2023-02-15T03:01:05.917Z,-1.5
2023-02-15T03:02:06.589Z,-1.5
2023-02-15T03:03:06.624Z,-1.5
2023-02-15T03:04:06.170Z,-1.4
2023-02-15T03:05:06.956Z,-1.4
2023-02-15T03:06:06.979Z,-1.4
2023-02-15T03:07:05.932Z,-1.4
2023-02-15T03:08:06.573Z,-1.5
2023-02-15T03:09:06.256Z,-1.4
2023-02-15T03:10:06.183Z,-1.4
2023-02-15T03:11:05.754Z,-1.5
2023-02-15T03:12:06.272Z,-1.5
2023-02-15T03:13:06.037Z,-1.5
2023-02-15T03:14:05.761Z,-2
2023-02-15T03:15:06.569Z,-1.5
2023-02-15T03:16:06.831Z,-1.5
2023-02-15T03:17:05.864Z,-1.5
2023-02-15T03:18:06.344Z,-1.5
2023-02-15T03:19:06.075Z,-1.5
2023-02-15T03:20:05.869Z,-1.5
2023-02-15T03:21:06.541Z,-1.5
2023-02-15T03:22:06.118Z,-1.5
2023-02-15T03:23:06.710Z,-1.5
2023-02-15T03:24:06.515Z,-1.5
2023-02-15T03:25:06.445Z,-1.6
2023-02-15T03:26:06.611Z,-1.5
2023-02-15T03:27:05.666Z,-1.5
2023-02-15T03:28:05.786Z,-1.6
2023-02-15T03:29:06.370Z,-1.5
2023-02-15T03:30:06.262Z,-1.5
2023-02-15T03:31:07.038Z,-1.5
2023-02-15T03:32:06.666Z,-1.6
2023-02-15T03:33:05.954Z,-1.5
2023-02-15T03:34:06.620Z,-1.5
2023-02-15T03:35:06.164Z,-1.5
2023-02-15T03:36:06.382Z,-1.6
2023-02-15T03:37:09.915Z,-1.6
2023-02-15T03:38:06.146Z,-1.6
2023-02-15T03:39:05.926Z,-1.6
2023-02-15T03:40:06.479Z,-1.6
2023-02-15T03:41:06.236Z,-1.6
2023-02-15T03:42:05.957Z,-1.6
2023-02-15T03:43:06.598Z,-3
2023-02-15T03:44:06.337Z,-1.6
2023-02-15T03:45:06.100Z,-1.6
2023-02-15T03:46:06.546Z,-1.6
2023-02-15T03:47:05.884Z,-1.6
2023-02-15T03:48:06.515Z,-1.6
2023-02-15T03:49:06.167Z,-1.6
2023-02-15T03:50:05.876Z,-1.6
2023-02-15T03:51:06.484Z,-1.6
2023-02-15T03:52:06.120Z,-3
2023-02-15T03:53:07.051Z,-1.6
2023-02-15T03:54:06.470Z,-1.6
2023-02-15T03:55:06.082Z,-1.6
2023-02-15T03:56:07.103Z,-1.7
2023-02-15T03:57:06.340Z,-1.6
2023-02-15T03:58:06.041Z,-1.7
2023-02-15T03:59:06.750Z,-1.7
2023-02-15T04:00:06.661Z,-1.7
2023-02-15T04:01:05.945Z,-1.7
2023-02-15T04:02:06.528Z,-1.7
2023-02-15T04:03:06.356Z,-1.7
2023-02-15T04:04:05.883Z,-1.7
2023-02-15T04:05:06.684Z,-1.7
2023-02-15T04:06:06.835Z,-1.7
2023-02-15T04:07:05.922Z,-3
2023-02-15T04:08:05.778Z,-1.7
2023-02-15T04:09:06.508Z,-1.7
2023-02-15T04:10:06.184Z,-1.7
2023-02-15T04:11:06.015Z,-1.7
2023-02-15T04:12:06.607Z,-1.7
2023-02-15T04:13:06.251Z,-1.7
2023-02-15T04:14:05.936Z,-1.7
2023-02-15T04:15:06.621Z,-1.6
2023-02-15T04:16:08.829Z,-1.7
2023-02-15T04:17:06.130Z,-1.7
2023-02-15T04:18:06.066Z,-1.7
2023-02-15T04:19:05.779Z,-3
2023-02-15T04:20:06.404Z,-1.6
2023-02-15T04:21:06.192Z,-1.6
2023-02-15T04:22:05.826Z,-1.6
2023-02-15T04:23:06.446Z,-1.6
2023-02-15T04:24:06.089Z,-1.6
2023-02-15T04:25:05.646Z,-1.6
2023-02-15T04:26:06.809Z,-1.6
2023-02-15T04:27:06.252Z,-1.6
2023-02-15T04:28:05.927Z,-1.6
2023-02-15T04:29:06.578Z,-1.6
2023-02-15T04:30:06.635Z,-3
2023-02-15T04:31:06.508Z,-1.6
2023-02-15T04:32:06.543Z,-1.6
2023-02-15T04:33:05.877Z,-1.6
2023-02-15T04:34:06.520Z,-1.6
2023-02-15T04:35:06.224Z,-1.7
2023-02-15T04:36:06.039Z,-1.6
2023-02-15T04:37:06.355Z,-1.6
2023-02-15T04:38:06.122Z,-1.7
2023-02-15T04:39:05.893Z,-1.7
2023-02-15T04:40:06.478Z,-1.7
2023-02-15T04:41:06.026Z,-1.7
2023-02-15T04:42:05.767Z,-3
2023-02-15T04:43:06.646Z,-1.7
2023-02-15T04:44:06.186Z,-1.7
2023-02-15T04:45:05.777Z,-1.7
2023-02-15T04:46:07.107Z,-1.7
2023-02-15T04:47:05.801Z,-1.7
2023-02-15T04:48:06.594Z,-1.6
2023-02-15T04:49:06.271Z,-1.7
2023-02-15T04:50:06.083Z,-1.7
2023-02-15T04:51:06.684Z,-1.6
2023-02-15T04:52:06.265Z,-2
2023-02-15T04:53:05.956Z,-2
2023-02-15T04:54:05.740Z,-2
2023-02-15T04:55:06.628Z,-1.6
2023-02-15T04:56:06.608Z,-1.6
2023-02-15T04:57:06.311Z,-1.6
2023-02-15T04:58:05.750Z,-1.6
2023-02-15T04:59:06.494Z,-1.6
2023-02-15T05:00:06.233Z,-1.6
2023-02-15T05:01:06.229Z,-2
2023-02-15T05:02:06.726Z,-1.6
2023-02-15T05:03:06.452Z,-1.6
2023-02-15T05:04:06.253Z,-1.6
2023-02-15T05:05:05.568Z,-1.6
2023-02-15T05:06:07.162Z,-3
2023-02-15T05:07:06.383Z,-1.6
2023-02-15T05:08:05.800Z,-1.6
2023-02-15T05:09:06.746Z,-1.6
2023-02-15T05:10:06.477Z,-1.6
2023-02-15T05:11:05.843Z,-1.6
2023-02-15T05:12:06.528Z,-1.6
2023-02-15T05:13:06.153Z,-1.6
2023-02-15T05:14:05.942Z,-1.6
2023-02-15T05:15:06.604Z,-1.6
2023-02-15T05:16:06.917Z,-1.6
2023-02-15T05:17:06.183Z,-3
2023-02-15T05:18:05.876Z,-3
2023-02-15T05:19:05.782Z,-1.6
2023-02-15T05:20:06.526Z,-1.6
2023-02-15T05:21:06.200Z,-1.6
2023-02-15T05:22:05.967Z,-1.6
2023-02-15T05:23:06.507Z,-1.6
2023-02-15T05:24:05.832Z,-1.6
2023-02-15T05:25:06.055Z,-1.6
2023-02-15T05:26:06.669Z,-1.6
2023-02-15T05:27:06.111Z,-1.6
2023-02-15T05:28:07.952Z,-1.6
2023-02-15T05:29:06.713Z,-1.6
2023-02-15T05:30:06.740Z,-1.6
2023-02-15T05:31:07.196Z,-1.6
2023-02-15T05:32:06.391Z,-1.7
2023-02-15T05:33:06.417Z,-1.6
2023-02-15T05:34:06.050Z,-1.6
2023-02-15T05:35:05.934Z,-1.7
2023-02-15T05:36:07.757Z,-1.7
2023-02-15T05:37:06.082Z,-1.7
2023-02-15T05:38:05.911Z,-1.8
2023-02-15T05:39:06.497Z,-1.8
2023-02-15T05:40:06.190Z,-1.8
2023-02-15T05:41:06.031Z,-1.8
2023-02-15T05:42:06.501Z,-3
2023-02-15T05:43:06.148Z,-1.8
2023-02-15T05:44:05.999Z,-1.8
2023-02-15T05:45:06.761Z,-1.8
2023-02-15T05:46:07.093Z,-1.8
2023-02-15T05:47:06.024Z,-1.8
2023-02-15T05:48:06.361Z,-1.8
2023-02-15T05:49:06.187Z,-1.8
2023-02-15T05:50:06.142Z,-1.8
2023-02-15T05:51:06.734Z,-1.8
2023-02-15T05:52:06.320Z,-1.8
2023-02-15T05:53:05.870Z,-1.8
2023-02-15T05:54:06.680Z,-1.8
2023-02-15T05:55:06.305Z,-1.8
2023-02-15T05:56:06.942Z,-1.8
2023-02-15T05:57:06.668Z,-1.8
2023-02-15T05:58:06.353Z,-3
2023-02-15T05:59:05.907Z,-1.8
2023-02-15T06:00:06.664Z,-1.8
2023-02-15T06:01:05.739Z,-1.8
2023-02-15T06:02:06.504Z,-1.8
2023-02-15T06:03:06.181Z,-1.8
2023-02-15T06:04:05.950Z,-3
2023-02-15T06:05:06.585Z,-1.8
2023-02-15T06:06:06.833Z,-1.8
2023-02-15T06:07:06.035Z,-1.8
2023-02-15T06:08:07.956Z,-3
2023-02-15T06:09:06.402Z,-1.8
2023-02-15T06:10:06.287Z,-1.8
2023-02-15T06:11:05.907Z,-1.8
2023-02-15T06:12:06.681Z,-1.9
2023-02-15T06:13:06.450Z,-1.8
2023-02-15T06:14:05.999Z,-1.9
2023-02-15T06:15:05.729Z,-1.9
2023-02-15T06:16:07.554Z,-1.9
2023-02-15T06:17:06.232Z,-1.9
2023-02-15T06:18:05.916Z,-1.9
2023-02-15T06:19:06.453Z,-1.9
2023-02-15T06:20:06.331Z,-1.9
2023-02-15T06:21:05.900Z,-1.9
2023-02-15T06:22:06.828Z,-1.9
2023-02-15T06:23:06.246Z,-1.9
2023-02-15T06:24:06.118Z,-1.9
2023-02-15T06:25:06.806Z,-1.9
2023-02-15T06:26:07.026Z,-1.9
2023-02-15T06:27:05.943Z,-1.9
2023-02-15T06:28:05.765Z,-3
2023-02-15T06:29:06.541Z,-1.9
2023-02-15T06:30:06.521Z,-1.9
2023-02-15T06:31:06.859Z,-1.9
2023-02-15T06:32:06.417Z,-1.9
2023-02-15T06:33:05.739Z,-1.9
2023-02-15T06:34:06.559Z,-1.9
2023-02-15T06:35:06.368Z,-1.9
2023-02-15T06:36:06.682Z,-1.9
2023-02-15T06:37:05.888Z,-1.9
2023-02-15T06:38:06.234Z,-1.9
2023-02-15T06:39:06.088Z,-1.9
2023-02-15T06:40:08.115Z,-2
2023-02-15T06:41:06.492Z,-1.9
2023-02-15T06:42:06.189Z,-1.9
2023-02-15T06:43:05.973Z,-3
2023-02-15T06:44:06.479Z,-1.9
2023-02-15T06:45:08.268Z,-1.9
2023-02-15T06:46:08.039Z,-1.9
2023-02-15T06:47:06.514Z,-1.9
2023-02-15T06:48:06.092Z,-1.9
2023-02-15T06:49:05.746Z,-1.9
2023-02-15T06:50:06.427Z,-1.9
2023-02-15T06:51:06.069Z,-1.9
2023-02-15T06:52:05.807Z,-3
2023-02-15T06:53:06.539Z,-1.9
2023-02-15T06:54:06.173Z,-1.9
2023-02-15T06:55:05.928Z,-1.9
2023-02-15T06:56:06.821Z,-1.9
2023-02-15T06:57:06.124Z,-1.9
2023-02-15T06:58:05.854Z,-1.9
2023-02-15T06:59:06.688Z,-1.8
2023-02-15T07:00:06.259Z,-1.9
2023-02-15T07:01:06.032Z,-1.9
2023-02-15T07:02:05.766Z,-1.9
2023-02-15T07:03:06.693Z,-3
2023-02-15T07:04:06.168Z,-1.8
2023-02-15T07:05:06.307Z,-1.9
2023-02-15T07:06:07.425Z,-1.9
2023-02-15T07:07:06.491Z,-1.8
2023-02-15T07:08:05.950Z,-1.8
2023-02-15T07:09:05.560Z,-1.9
2023-02-15T07:10:06.773Z,-1.9
2023-02-15T07:11:06.367Z,-1.9
2023-02-15T07:12:06.155Z,-1.8
2023-02-15T07:13:05.764Z,-1.8
2023-02-15T07:14:06.343Z,-1.9
2023-02-15T07:15:05.954Z,-3
2023-02-15T07:16:07.376Z,-1.8
2023-02-15T07:17:09.064Z,-1.9
2023-02-15T07:18:05.863Z,-1.8
2023-02-15T07:19:06.629Z,-1.8
2023-02-15T07:20:06.419Z,-1.8
2023-02-15T07:21:06.185Z,-1.8
2023-02-15T07:22:06.004Z,-1.8
2023-02-15T07:23:06.495Z,-1.8
2023-02-15T07:24:06.221Z,-1.8
2023-02-15T07:25:05.791Z,-1.8
2023-02-15T07:26:06.996Z,-1.8
2023-02-15T07:27:06.100Z,-1.8
2023-02-15T07:28:05.774Z,-1.8
2023-02-15T07:29:05.809Z,-1.8
2023-02-15T07:30:06.874Z,-1.7
2023-02-15T07:31:06.808Z,-1.7
2023-02-15T07:32:06.258Z,-1.7
2023-02-15T07:33:09.432Z,-1.8
2023-02-15T07:34:06.268Z,-1.7
2023-02-15T07:35:06.074Z,-1.7
2023-02-15T07:36:06.750Z,-1.7
2023-02-15T07:37:06.514Z,-1.7
2023-02-15T07:38:06.142Z,-2
2023-02-15T07:39:05.797Z,-2
2023-02-15T07:40:06.417Z,-1.6
2023-02-15T07:41:06.148Z,-1.6
2023-02-15T07:42:05.702Z,-1.6
2023-02-15T07:43:06.509Z,-1.6
2023-02-15T07:44:06.174Z,-2
2023-02-15T07:45:05.978Z,-1.6
2023-02-15T07:46:06.671Z,-1.6
2023-02-15T07:47:06.551Z,-1.6
2023-02-15T07:48:06.131Z,-1.6
2023-02-15T07:49:06.621Z,-1.6
2023-02-15T07:50:06.242Z,-2
2023-02-15T07:51:05.909Z,-1.6
2023-02-15T07:52:05.807Z,-1.5
2023-02-15T07:53:06.541Z,-1.6
2023-02-15T07:54:06.261Z,-2
2023-02-15T07:55:05.633Z,-1.6
2023-02-15T07:56:06.882Z,-1.5
2023-02-15T07:57:06.205Z,-1.5
2023-02-15T07:58:05.706Z,-1.5
2023-02-15T07:59:06.511Z,-1.5
2023-02-15T08:00:06.305Z,-1.5
2023-02-15T08:01:05.892Z,-1.5
2023-02-15T08:02:06.430Z,-1.5
2023-02-15T08:03:06.644Z,-1.5
2023-02-15T08:04:06.090Z,-2
2023-02-15T08:05:06.626Z,-1.4
2023-02-15T08:06:06.944Z,-2
2023-02-15T08:07:05.908Z,-1.4
2023-02-15T08:08:06.852Z,-1.4
2023-02-15T08:09:06.369Z,-1.4
2023-02-15T08:10:05.970Z,-1.4
2023-02-15T08:11:06.671Z,-1.4
2023-02-15T08:12:06.324Z,-1.3
2023-02-15T08:13:05.849Z,-1.3
2023-02-15T08:14:05.986Z,-1.3
2023-02-15T08:15:05.873Z,-2
2023-02-15T08:16:07.295Z,-2
2023-02-15T08:17:06.058Z,-1.3
2023-02-15T08:18:05.921Z,-2
2023-02-15T08:19:06.439Z,-1.3
2023-02-15T08:20:05.915Z,-1.2
2023-02-15T08:21:05.798Z,-1.2
2023-02-15T08:22:06.484Z,-1.2
2023-02-15T08:23:06.042Z,-1.2
2023-02-15T08:24:05.848Z,-1.2
2023-02-15T08:25:06.573Z,-1.2
2023-02-15T08:26:06.651Z,-1.2
2023-02-15T08:27:08.163Z,-1.2
2023-02-15T08:28:06.517Z,-1.2
2023-02-15T08:29:06.173Z,-1.2
2023-02-15T08:30:05.929Z,-1.2
2023-02-15T08:31:07.143Z,-1.2
2023-02-15T08:32:06.197Z,-2
2023-02-15T08:33:06.365Z,-2
2023-02-15T08:34:06.385Z,-1.1
2023-02-15T08:35:06.003Z,-2
2023-02-15T08:36:06.764Z,-1.1
2023-02-15T08:37:06.304Z,-2
2023-02-15T08:38:06.271Z,-2
2023-02-15T08:39:06.042Z,-1.1
2023-02-15T08:40:05.815Z,-1.1
2023-02-15T08:41:06.861Z,-1.1
2023-02-15T08:42:06.153Z,-1
2023-02-15T08:43:05.961Z,-1
2023-02-15T08:44:06.692Z,-1
2023-02-15T08:45:06.289Z,-1
2023-02-15T08:46:06.508Z,-1
2023-02-15T08:47:06.161Z,-1
2023-02-15T08:48:06.732Z,-0.9
2023-02-15T08:49:06.398Z,-2
2023-02-15T08:50:06.012Z,-0.9
2023-02-15T08:51:07.216Z,-1
2023-02-15T08:52:06.325Z,-1
2023-02-15T08:53:06.025Z,-0.9
2023-02-15T08:54:05.773Z,-0.9
2023-02-15T08:55:06.360Z,-1
2023-02-15T08:56:06.082Z,-1
2023-02-15T08:57:06.698Z,-1
2023-02-15T08:58:06.271Z,-1
2023-02-15T08:59:06.022Z,-1.1
2023-02-15T09:00:05.811Z,-1.1
2023-02-15T09:01:07.387Z,-1.1
2023-02-15T09:02:06.479Z,-1.1
2023-02-15T09:03:06.009Z,-1.1
2023-02-15T09:04:06.628Z,-1
2023-02-15T09:05:06.056Z,-1
2023-02-15T09:06:05.968Z,-1
2023-02-15T09:07:05.914Z,-1
2023-02-15T09:08:06.532Z,-1
2023-02-15T09:09:06.207Z,-1
2023-02-15T09:10:06.031Z,-1
2023-02-15T09:11:06.943Z,-0.9
2023-02-15T09:12:06.250Z,-1
2023-02-15T09:13:06.082Z,-2
2023-02-15T09:14:06.632Z,-0.9
2023-02-15T09:15:06.620Z,-0.8
2023-02-15T09:16:06.763Z,-2
2023-02-15T09:17:06.568Z,-2
2023-02-15T09:18:06.054Z,-2
2023-02-15T09:19:05.788Z,-0.9
2023-02-15T09:20:06.501Z,-0.9
2023-02-15T09:21:06.853Z,-0.9
2023-02-15T09:22:05.809Z,-0.9
2023-02-15T09:23:06.350Z,-0.9
2023-02-15T09:24:06.234Z,-0.9
2023-02-15T09:25:06.065Z,-2
2023-02-15T09:26:05.662Z,-0.8
2023-02-15T09:27:06.442Z,-0.9
2023-02-15T09:28:06.162Z,-0.8
2023-02-15T09:29:06.073Z,-0.8
2023-02-15T09:30:06.622Z,-2
2023-02-15T09:31:07.311Z,-0.8
2023-02-15T09:32:06.218Z,-0.8
2023-02-15T09:33:05.716Z,-0.8
2023-02-15T09:34:06.443Z,-0.7
2023-02-15T09:35:06.313Z,-0.7
2023-02-15T09:36:06.051Z,-0.7
2023-02-15T09:37:05.663Z,-0.7
2023-02-15T09:38:06.687Z,-0.6
2023-02-15T09:39:06.304Z,-0.6
2023-02-15T09:40:05.958Z,-0.6
2023-02-15T09:41:07.180Z,-0.6
2023-02-15T09:42:06.320Z,-0.6
2023-02-15T09:43:05.958Z,-0.5
2023-02-15T09:44:06.479Z,-0.5
2023-02-15T09:45:06.317Z,-0.4
2023-02-15T09:46:06.464Z,-0.4
2023-02-15T09:47:05.903Z,-0.4
2023-02-15T09:48:05.729Z,-0.5
2023-02-15T09:49:06.397Z,-0.5
2023-02-15T09:50:06.115Z,-0.4
2023-02-15T09:51:07.055Z,-1
2023-02-15T09:52:06.190Z,-0.4
2023-02-15T09:53:05.921Z,-0.4
2023-02-15T09:54:06.632Z,-0.3
2023-02-15T09:55:06.204Z,-0.3
2023-02-15T09:56:05.829Z,-0.3
2023-02-15T09:57:06.378Z,-0.3
2023-02-15T09:58:06.666Z,-0.3
2023-02-15T09:59:06.089Z,-0.3
2023-02-15T10:00:05.672Z,-0.2
2023-02-15T10:01:07.553Z,-0.2
2023-02-15T10:02:06.257Z,-0.2
2023-02-15T10:03:08.348Z,-0.1
2023-02-15T10:04:06.562Z,-0.1
2023-02-15T10:05:06.149Z,-0.1
2023-02-15T10:06:05.804Z,-0.1
2023-02-15T10:07:06.352Z,-0.1
2023-02-15T10:08:06.139Z,-0.1
2023-02-15T10:09:06.734Z,-0.1
2023-02-15T10:10:06.289Z,-0.1
2023-02-15T10:11:06.608Z,-0.1
2023-02-15T10:12:05.556Z,-0.1
2023-02-15T10:13:06.452Z,0
2023-02-15T10:14:06.048Z,0
2023-02-15T10:15:05.981Z,0
2023-02-15T10:16:06.417Z,0
2023-02-15T10:17:06.013Z,0
2023-02-15T10:18:06.734Z,0
2023-02-15T10:19:06.428Z,0
2023-02-15T10:20:06.090Z,0
2023-02-15T10:21:06.624Z,0
2023-02-15T10:22:05.628Z,0
2023-02-15T10:23:06.463Z,0
2023-02-15T10:24:05.990Z,0
2023-02-15T10:25:06.642Z,0
2023-02-15T10:26:06.885Z,0
2023-02-15T10:27:06.260Z,0
2023-02-15T10:28:06.066Z,0.1
2023-02-15T10:29:06.606Z,0.2
2023-02-15T10:30:06.837Z,-1
2023-02-15T10:31:07.519Z,0.2
2023-02-15T10:32:06.521Z,0.2
2023-02-15T10:33:05.852Z,0.2
2023-02-15T10:34:06.283Z,0.2
2023-02-15T10:35:06.057Z,0.2
2023-02-15T10:36:06.467Z,0.3
2023-02-15T10:37:06.408Z,0.3
2023-02-15T10:38:06.248Z,0.3
2023-02-15T10:39:05.710Z,0.4
2023-02-15T10:40:06.400Z,0.4
2023-02-15T10:41:06.946Z,0.3
2023-02-15T10:42:05.895Z,0.4
2023-02-15T10:43:06.635Z,0.3
2023-02-15T10:44:06.437Z,0.3
2023-02-15T10:45:06.162Z,0.4
2023-02-15T10:46:06.553Z,-1
2023-02-15T10:47:05.920Z,0.4
2023-02-15T10:48:06.628Z,0.5
2023-02-15T10:49:06.414Z,0.4
2023-02-15T10:50:05.835Z,0.5
2023-02-15T10:51:07.289Z,0.5
2023-02-15T10:52:06.239Z,0.6
2023-02-15T10:53:06.095Z,0.6
2023-02-15T10:54:05.720Z,0.5
2023-02-15T10:55:06.397Z,0.5
2023-02-15T10:56:06.075Z,0.6
2023-02-15T10:57:06.486Z,0.6
2023-02-15T10:58:06.437Z,0.6
2023-02-15T10:59:06.063Z,0.7
2023-02-15T11:00:05.727Z,-1
2023-02-15T11:01:06.937Z,0.7
2023-02-15T11:02:06.593Z,-1
2023-02-15T11:03:06.273Z,0.8
2023-02-15T11:04:06.276Z,0.8
2023-02-15T11:05:06.756Z,0.8
2023-02-15T11:06:06.250Z,0.8
2023-02-15T11:07:05.711Z,0.8
2023-02-15T11:08:06.509Z,0.8
2023-02-15T11:09:06.194Z,0.8
2023-02-15T11:10:05.773Z,0.9
2023-02-15T11:11:07.227Z,0.9
2023-02-15T11:12:06.015Z,0.9
2023-02-15T11:13:05.866Z,0.9
2023-02-15T11:14:06.367Z,1
2023-02-15T11:15:06.148Z,1
2023-02-15T11:16:06.130Z,1
2023-02-15T11:17:06.549Z,1
2023-02-15T11:18:06.584Z,1
2023-02-15T11:19:06.293Z,1
2023-02-15T11:20:05.897Z,1.1
2023-02-15T11:21:08.574Z,1.1
2023-02-15T11:22:05.968Z,0
2023-02-15T11:23:06.556Z,1.2
2023-02-15T11:24:06.495Z,1.2
2023-02-15T11:25:06.190Z,1.2
2023-02-15T11:26:05.904Z,1.2
2023-02-15T11:27:06.806Z,1.1
2023-02-15T11:28:06.330Z,1.2
2023-02-15T11:29:06.029Z,1.2
2023-02-15T11:30:06.952Z,1.2
2023-02-15T11:31:07.795Z,1.1
2023-02-15T11:32:06.681Z,1.2
2023-02-15T11:33:08.932Z,1.2
2023-02-15T11:34:06.785Z,0
2023-02-15T11:35:06.377Z,1.2
2023-02-15T11:36:06.012Z,1.2
2023-02-15T11:37:06.748Z,0
2023-02-15T11:38:06.214Z,1.2
2023-02-15T11:39:06.119Z,1.2
2023-02-15T11:40:05.814Z,1.2
2023-02-15T11:41:07.355Z,1.2
2023-02-15T11:42:05.997Z,1.2
2023-02-15T11:43:06.683Z,1.2
2023-02-15T11:44:06.260Z,1.2
2023-02-15T11:45:06.098Z,1.2
2023-02-15T11:46:06.817Z,1.1
2023-02-15T11:47:06.316Z,1.1
2023-02-15T11:48:06.036Z,1.1
2023-02-15T11:49:06.729Z,1.1
2023-02-15T11:50:06.291Z,1.1
2023-02-15T11:51:06.972Z,1.1
2023-02-15T11:52:05.774Z,1.1
2023-02-15T11:53:06.453Z,1.2
2023-02-15T11:54:06.125Z,1.2
2023-02-15T11:55:05.841Z,1.2
2023-02-15T11:56:06.297Z,1.3
2023-02-15T11:57:06.062Z,1.3
2023-02-15T11:58:05.817Z,1.3
2023-02-15T11:59:06.656Z,1.4
2023-02-15T12:00:06.346Z,1.4
2023-02-15T12:01:06.826Z,1.4
2023-02-15T12:02:06.506Z,1.3
2023-02-15T12:03:06.489Z,1.3
2023-02-15T12:04:06.434Z,1.3
2023-02-15T12:05:05.970Z,1.4
2023-02-15T12:06:06.789Z,1.4
2023-02-15T12:07:06.728Z,1.3
2023-02-15T12:08:06.075Z,1.3
2023-02-15T12:09:07.000Z,0
2023-02-15T12:10:06.332Z,0
2023-02-15T12:11:06.795Z,1.3
2023-02-15T12:12:06.710Z,1.3
2023-02-15T12:13:06.255Z,1.4
2023-02-15T12:14:05.945Z,1.4
2023-02-15T12:15:06.680Z,1.4
2023-02-15T12:16:06.285Z,1.4
2023-02-15T12:17:06.775Z,1.4
2023-02-15T12:18:06.510Z,1.4
2023-02-15T12:19:06.226Z,1.4
2023-02-15T12:20:06.122Z,1.4
2023-02-15T12:21:07.104Z,1.5
2023-02-15T12:22:07.221Z,1.5
2023-02-15T12:23:05.922Z,1.5
2023-02-15T12:24:05.616Z,1.5
2023-02-15T12:25:06.533Z,1.4
2023-02-15T12:26:06.043Z,1.5
2023-02-15T12:27:05.873Z,1.5
2023-02-15T12:28:06.463Z,1.5
2023-02-15T12:29:06.235Z,1.5
2023-02-15T12:30:06.049Z,1.5
2023-02-15T12:31:07.114Z,1.5
2023-02-15T12:32:07.141Z,1.5
2023-02-15T12:33:06.114Z,0
2023-02-15T12:34:06.107Z,1.5
2023-02-15T12:35:06.557Z,1.5
2023-02-15T12:36:07.226Z,1.5
2023-02-15T12:37:05.978Z,1.5
2023-02-15T12:38:05.806Z,1.5
2023-02-15T12:39:06.448Z,1.5
2023-02-15T12:40:06.352Z,1.5
2023-02-15T12:41:06.733Z,1.4
2023-02-15T12:42:06.494Z,1.5
2023-02-15T12:43:11.296Z,1.5
2023-02-15T12:44:06.076Z,1.5
2023-02-15T12:45:05.873Z,1.5
2023-02-15T12:46:06.446Z,1.5
2023-02-15T12:47:06.503Z,0
2023-02-15T12:48:05.939Z,1.5
2023-02-15T12:49:05.901Z,1.5
2023-02-15T12:51:06.357Z,1.6
2023-02-15T12:52:05.749Z,1.5
2023-02-15T12:53:06.435Z,1.5
2023-02-15T12:54:05.971Z,1.6
2023-02-15T12:55:06.540Z,1.6
2023-02-15T12:56:06.487Z,1
2023-02-15T12:57:06.230Z,1.5
2023-02-15T12:58:05.904Z,1.6
2023-02-15T12:59:06.488Z,1.6
2023-02-15T13:00:06.284Z,1.6
2023-02-15T13:01:07.391Z,1.6
2023-02-15T13:02:06.402Z,1.7
2023-02-15T13:03:05.809Z,1.6
2023-02-15T13:04:06.566Z,1.6
2023-02-15T13:05:06.133Z,1.7
2023-02-15T13:06:05.849Z,1.7
2023-02-15T13:07:06.478Z,1.7
2023-02-15T13:08:06.380Z,1
2023-02-15T13:09:06.161Z,1.7
2023-02-15T13:10:05.827Z,1.7
2023-02-15T13:11:07.142Z,1.7
2023-02-15T13:12:06.195Z,1.7
2023-02-15T13:13:05.837Z,1.8
2023-02-15T13:14:06.274Z,1.8
2023-02-15T13:15:06.162Z,1.8
2023-02-15T13:16:06.922Z,1.8
2023-02-15T13:17:08.838Z,1.8
2023-02-15T13:18:06.264Z,1.8
2023-02-15T13:19:05.978Z,1.9
2023-02-15T13:20:06.482Z,1.8
2023-02-15T13:21:07.105Z,1.9
2023-02-15T13:22:06.020Z,1.9
2023-02-15T13:23:05.665Z,1.9
2023-02-15T13:24:06.571Z,1.8
2023-02-15T13:25:06.064Z,1.8
2023-02-15T13:26:05.854Z,1.8
2023-02-15T13:27:19.183Z,1.8
2023-02-15T13:28:06.347Z,1.8
2023-02-15T13:29:06.031Z,1.8
2023-02-15T13:30:06.901Z,1.8
2023-02-15T13:31:07.573Z,1.8
2023-02-15T13:32:06.503Z,1.8
2023-02-15T13:33:05.856Z,1.8
2023-02-15T13:34:06.439Z,1
2023-02-15T13:35:08.445Z,1.8